Sea Princess — ZCBU3 — position and weather

sailwx.info

Track history (hours):
 
Tides and Currents Weather Stations Pressure Air Temp Water Temp Dewpoint Dewpoint Depression Visibility Wind Speed Wind Dir Waves Ship Positions

Sea Princess

Last reported at 2018-Jan-20 05:00 UTC. Time now 2018-Jan-20 09:23 UTC.
Position S 25°06' E 154°30'.

Length 261.2 m; beam 32.2 m; draft 8.1 m.

Type: Passenger vessel. MMSI: 310465000.

Wind from 160 at 20 knots

Barometer 1009.5 mb
Air temperature 29.0 ° C
Visibility: greater than 5.4 NM
Dewpoint 24.8 ° C
Water temperature 27.0 ° C

Date/timePositionNaut miles runAvg speedWind from/ knotsBaromVisibWave heightAir tempDewpointWater temp
2018-Jan-20 05:00S 25°06' E 154°30'62 2.5 160 / 201009.5 5.4 29.024.827.0
2018-Jan-19 04:13S 24°16' E 155°10'410.4
2018-Jan-19 03:52S 24°19' E 155°08'410.3
2018-Jan-19 03:30S 24°22' E 155°06'510.3
2018-Jan-19 03:00S 24°27' E 155°02'510.5
2018-Jan-19 02:30S 24°31' E 154°59'3910.5
2018-Jan-18 22:50S 25°02' E 154°34'410.4
2018-Jan-18 22:26S 25°06' E 154°31'510.4
2018-Jan-18 21:59S 25°09' E 154°28'1110.5
2018-Jan-18 20:59S 25°18' E 154°21'510.3
2018-Jan-18 20:30S 25°22' E 154°18'3610.1
2018-Jan-18 16:59S 25°51' E 153°55'6510.0
2018-Jan-18 10:32S 26°42' E 153°11'010.8
2018-Jan-18 10:29S 26°43' E 153°11'612.8
2018-Jan-18 10:00S 26°49' E 153°10'713.3
2018-Jan-18 09:30S 26°55' E 153°12'815.8
2018-Jan-18 09:00S 27°02' E 153°15'815.5
2018-Jan-18 08:30S 27°08' E 153°21'815.5
2018-Jan-18 08:01S 27°15' E 153°18'714.0
2018-Jan-18 07:31S 27°20' E 153°12'510.3
2018-Jan-18 07:00S 27°24' E 153°09'4 7.2
2018-Jan-18 06:30S 27°27' E 153°06'63812.4
2018-Jan-16 03:00S 28°12' E 165°06'   290 / 171006.7 5.4 25.521.824.5
Track history (hours):
 
Tides and Currents Weather Stations Pressure Air Temp Water Temp Dewpoint Dewpoint Depression Visibility Wind Speed Wind Dir Waves Ship Positions

Sea Princess

Last reported at 2018-Jan-20 05:00 UTC. Time now 2018-Jan-20 09:23 UTC.
Position S 25°06' E 154°30'.

Length 261.2 m; beam 32.2 m; draft 8.1 m.

Type: Passenger vessel. MMSI: 310465000.

Wind from 160 at 20 knots

Barometer 1009.5 mb
Air temperature 29.0 ° C
Visibility: greater than 5.4 NM
Dewpoint 24.8 ° C
Water temperature 27.0 ° C

Date/timePositionNaut miles runAvg speedWind from/ knotsBaromVisibWave heightAir tempDewpointWater temp
2018-Jan-20 05:00S 25°06' E 154°30'62 2.5 160 / 201009.5 5.4 29.024.827.0
2018-Jan-19 04:13S 24°16' E 155°10'410.4
2018-Jan-19 03:52S 24°19' E 155°08'410.3
2018-Jan-19 03:30S 24°22' E 155°06'510.3
2018-Jan-19 03:00S 24°27' E 155°02'510.5
2018-Jan-19 02:30S 24°31' E 154°59'3910.5
2018-Jan-18 22:50S 25°02' E 154°34'410.4
2018-Jan-18 22:26S 25°06' E 154°31'510.4
2018-Jan-18 21:59S 25°09' E 154°28'1110.5
2018-Jan-18 20:59S 25°18' E 154°21'510.3
2018-Jan-18 20:30S 25°22' E 154°18'3610.1
2018-Jan-18 16:59S 25°51' E 153°55'6510.0
2018-Jan-18 10:32S 26°42' E 153°11'010.8
2018-Jan-18 10:29S 26°43' E 153°11'612.8
2018-Jan-18 10:00S 26°49' E 153°10'713.3
2018-Jan-18 09:30S 26°55' E 153°12'815.8
2018-Jan-18 09:00S 27°02' E 153°15'815.5
2018-Jan-18 08:30S 27°08' E 153°21'815.5
2018-Jan-18 08:01S 27°15' E 153°18'714.0
2018-Jan-18 07:31S 27°20' E 153°12'510.3
2018-Jan-18 07:00S 27°24' E 153°09'4 7.2
2018-Jan-18 06:30S 27°27' E 153°06'63812.4
2018-Jan-16 03:00S 28°12' E 165°06'   290 / 171006.7 5.4 25.521.824.5

Dump ship's entire track history